Time;durP1;ratioP1;P1;durP2;ratioP2;P2;SDS_P1;SDS_P2;PMS_P1;PMS_P2;Temp;Humidity;BMP_temperature;BMP_pressure;BME280_temperature;BME280_humidity;BME280_pressure;Samples;Min_cycle;Max_cycle;Signal;HPM_P1;HPM_P2
2022/12/07 00:01:30;;;;;;;;;13.25;11.75;;;;;21.43;38.09;102063.34;5015536;28;45351;-73
2022/12/07 00:04:03;;;;;;;;;8.00;8.00;;;;;21.46;38.10;102068.34;5015591;28;45444;-73
2022/12/07 00:06:42;;;;;;;;;12.50;8.25;;;;;21.45;38.02;102069.31;5015678;28;45363;-73
2022/12/07 00:09:11;;;;;;;;;11.50;10.00;;;;;21.46;38.33;102065.72;5015307;28;45422;-73
2022/12/07 00:11:37;;;;;;;;;11.25;9.75;;;;;21.45;38.05;102064.03;5015462;28;46099;-73
2022/12/07 00:14:06;;;;;;;;;6.00;6.00;;;;;21.46;38.21;102064.88;5015074;28;45324;-74
2022/12/07 00:16:33;;;;;;;;;10.75;10.75;;;;;21.45;37.97;102060.53;5015343;28;45435;-73
2022/12/07 00:18:58;;;;;;;;;10.50;9.00;;;;;21.38;38.29;102049.72;5015555;28;45335;-73
2022/12/07 00:21:27;;;;;;;;;10.25;8.75;;;;;21.39;37.90;102046.91;5015428;28;46299;-73
2022/12/07 00:23:54;;;;;;;;;9.50;8.75;;;;;21.43;38.10;102050.09;5015145;28;45411;-73
2022/12/07 00:26:22;;;;;;;;;11.25;10.00;;;;;21.43;38.11;102042.16;5015500;28;45390;-73
2022/12/07 00:28:50;;;;;;;;;6.00;5.25;;;;;21.24;38.04;102016.59;5015360;28;45347;-73
2022/12/07 00:31:18;;;;;;;;;12.00;8.75;;;;;21.39;38.25;102041.63;5015301;28;46140;-73
2022/12/07 00:33:44;;;;;;;;;11.00;9.75;;;;;21.35;38.05;102031.47;5015336;28;45256;-73
2022/12/07 00:36:12;;;;;;;;;11.00;9.00;;;;;21.40;37.87;102039.81;5015367;28;45293;-73
2022/12/07 00:38:39;;;;;;;;;10.75;10.75;;;;;21.42;38.13;102050.25;5015115;28;45347;-73
2022/12/07 00:41:12;;;;;;;;;7.50;7.50;;;;;21.39;38.12;102051.41;5015127;28;46170;-73
2022/12/07 00:43:38;;;;;;;;;12.00;10.00;;;;;21.37;37.68;102046.22;5015158;28;45388;-73
2022/12/07 00:46:04;;;;;;;;;11.25;11.25;;;;;21.39;38.00;102044.25;5015098;28;45443;-73
2022/12/07 00:48:29;;;;;;;;;16.25;11.00;;;;;21.37;37.94;102043.56;4997338;28;45419;-73
2022/12/07 00:50:54;;;;;;;;;11.00;8.25;;;;;21.36;38.31;102043.75;5015141;28;45295;-73
2022/12/07 00:53:20;;;;;;;;;12.00;10.00;;;;;21.36;37.84;102047.22;5014905;28;45378;-73
2022/12/07 00:55:46;;;;;;;;;12.00;9.25;;;;;21.37;37.90;102040.09;5015230;28;45429;-73
2022/12/07 00:58:11;;;;;;;;;10.50;10.50;;;;;21.28;38.21;102029.41;5015175;28;45339;-73
2022/12/07 01:00:39;;;;;;;;;11.50;10.25;;;;;21.23;38.01;102015.78;5014783;28;47037;-72
2022/12/07 01:03:05;;;;;;;;;11.25;10.25;;;;;21.35;38.20;102031.47;5015053;28;45241;-73
2022/12/07 01:05:30;;;;;;;;;10.75;10.00;;;;;21.35;37.93;102029.66;5014994;28;45359;-73
2022/12/07 01:07:56;;;;;;;;;8.75;8.00;;;;;21.32;38.01;102014.06;5014513;28;45614;-72
2022/12/07 01:10:21;;;;;;;;;11.75;10.00;;;;;21.31;38.05;102017.72;5014863;28;46240;-73
2022/12/07 01:12:46;;;;;;;;;10.75;10.25;;;;;21.29;37.83;102024.94;5014904;28;45390;-73
2022/12/07 01:15:12;;;;;;;;;11.00;9.00;;;;;21.34;38.03;102021.88;5014966;28;45613;-73
2022/12/07 01:17:37;;;;;;;;;9.00;8.75;;;;;21.34;37.82;102020.03;5014926;28;45406;-73
2022/12/07 01:20:04;;;;;;;;;9.00;9.00;;;;;21.33;38.04;102021.03;5014690;28;46531;-73
2022/12/07 01:22:29;;;;;;;;;9.75;9.50;;;;;21.33;37.68;102013.09;5014671;28;45419;-73
2022/12/07 01:24:54;;;;;;;;;10.50;10.25;;;;;21.32;37.81;102011.41;5014687;28;45394;-73
2022/12/07 01:27:21;;;;;;;;;10.75;10.00;;;;;21.22;38.15;102000.88;5017573;28;45451;-71
2022/12/07 01:29:46;;;;;;;;;12.00;10.75;;;;;21.23;37.38;102001.72;5018100;28;46012;-73
2022/12/07 01:32:12;;;;;;;;;14.50;10.25;;;;;21.15;37.25;101984.75;5017932;28;45433;-73
2022/12/07 01:34:37;;;;;;;;;11.75;10.00;;;;;21.31;37.97;102020.34;5018384;28;45418;-72
2022/12/07 01:37:02;;;;;;;;;13.50;10.75;;;;;21.32;37.48;102015.88;5017909;28;45414;-73
2022/12/07 01:39:28;;;;;;;;;12.00;10.75;;;;;21.31;37.96;102014.22;5017814;28;46342;-72
2022/12/07 01:41:53;;;;;;;;;11.50;10.00;;;;;21.31;37.84;102016.88;5018015;28;45457;-72
2022/12/07 01:44:26;;;;;;;;;10.50;10.50;;;;;21.32;37.81;102015.88;5000087;28;45305;-72
2022/12/07 01:46:55;;;;;;;;;10.00;9.25;;;;;21.32;37.52;102018.50;5000186;28;45372;-72
2022/12/07 01:49:37;;;;;;;;;13.25;10.50;;;;;21.31;37.78;102012.41;5017234;28;46293;-73
2022/12/07 01:52:31;;;;;;;;;12.00;11.00;;;;;21.32;37.62;102016.72;5017717;28;45260;-72
2022/12/07 01:55:02;;;;;;;;;15.00;11.75;;;;;21.31;37.88;102011.56;5017644;28;45439;-73
2022/12/07 01:57:30;;;;;;;;;11.50;11.50;;;;;21.32;37.96;102008.78;5017561;28;45403;-72
2022/12/07 01:59:56;;;;;;;;;11.50;9.00;;;;;21.25;37.73;101994.47;5017329;28;46576;-72
2022/12/07 02:02:34;;;;;;;;;16.50;13.00;;;;;21.25;37.93;102008.53;5017507;28;45411;-73
2022/12/07 02:05:03;;;;;;;;;11.25;10.25;;;;;21.20;37.77;101994.06;5017349;28;45528;-73
2022/12/07 02:07:29;;;;;;;;;12.50;11.00;;;;;21.26;37.64;102010.19;5017423;28;45483;-72
2022/12/07 02:09:55;;;;;;;;;11.75;10.00;;;;;21.30;37.41;102016.03;4999357;28;46151;-73
2022/12/07 02:12:23;;;;;;;;;11.00;10.00;;;;;21.27;37.79;102016.31;5017544;28;45300;-72
2022/12/07 02:14:50;;;;;;;;;11.50;10.25;;;;;21.25;37.98;102008.53;5017414;28;45257;-72
2022/12/07 02:17:24;;;;;;;;;10.75;10.75;;;;;21.27;37.66;102011.88;5017619;28;45293;-73
2022/12/07 02:20:11;;;;;;;;;11.50;10.75;;;;;21.28;37.58;102013.53;5016932;28;46391;-73
2022/12/07 02:23:10;;;;;;;;;11.50;10.50;;;;;21.27;37.68;102017.16;5017175;28;45390;-72
2022/12/07 02:25:53;;;;;;;;;13.25;11.00;;;;;21.27;37.43;102013.66;5017348;28;45447;-73
2022/12/07 02:28:26;;;;;;;;;14.50;11.50;;;;;21.20;37.87;102008.13;5017243;28;45560;-73
2022/12/07 02:30:57;;;;;;;;;12.25;10.75;;;;;21.26;37.45;102019.97;5016967;28;46190;-73
2022/12/07 02:33:29;;;;;;;;;10.00;9.00;;;;;21.25;37.88;102015.63;4998877;28;45312;-73
2022/12/07 02:36:01;;;;;;;;;13.50;11.75;;;;;21.26;37.38;102022.59;5017326;28;45344;-72
2022/12/07 02:38:34;;;;;;;;;14.25;10.75;;;;;21.25;37.97;102013.00;5016201;28;45447;-72
2022/12/07 02:41:03;;;;;;;;;11.50;11.50;;;;;21.25;37.84;102018.28;4999149;28;46046;-73
2022/12/07 02:43:33;;;;;;;;;11.00;11.00;;;;;21.13;37.51;101996.47;5016997;28;45459;-73
2022/12/07 02:46:08;;;;;;;;;10.75;9.50;;;;;21.24;37.73;102016.59;5016919;28;45393;-73
2022/12/07 02:48:34;;;;;;;;;15.25;11.00;;;;;21.21;37.68;102009.78;5016700;28;45309;-72
2022/12/07 02:50:59;;;;;;;;;13.00;10.00;;;;;21.23;37.93;102012.31;5016673;28;46003;-72
2022/12/07 02:53:34;;;;;;;;;15.25;10.50;;;;;21.23;38.02;102004.38;5016724;28;45372;-73
2022/12/07 02:56:08;;;;;;;;;10.25;9.25;;;;;21.22;37.83;102006.16;5016869;28;45391;-73
2022/12/07 02:58:50;;;;;;;;;11.50;11.50;;;;;21.21;37.87;102007.13;5016882;28;45352;-73
2022/12/07 03:01:37;;;;;;;;;12.50;10.00;;;;;21.14;37.83;101991.03;5016380;28;46331;-73
2022/12/07 03:04:25;;;;;;;;;10.00;9.00;;;;;21.17;37.22;101990.75;5016192;28;45246;-73
2022/12/07 03:07:09;;;;;;;;;11.75;9.75;;;;;21.12;37.79;101976.28;5016624;28;45489;-73
2022/12/07 03:09:44;;;;;;;;;13.75;11.00;;;;;21.16;37.72;101981.13;5016574;28;45317;-73
2022/12/07 03:12:16;;;;;;;;;11.50;10.50;;;;;21.16;37.40;101991.72;5016405;28;46310;-73
2022/12/07 03:14:50;;;;;;;;;12.75;9.25;;;;;21.20;37.53;101994.06;5016314;28;45422;-73
2022/12/07 03:17:22;;;;;;;;;13.25;11.25;;;;;21.21;37.76;101990.44;5016244;28;45594;-72
2022/12/07 03:19:51;;;;;;;;;9.50;7.50;;;;;21.22;37.55;101992.94;5016468;28;45538;-73
2022/12/07 03:22:19;;;;;;;;;11.50;11.25;;;;;21.22;37.73;101994.75;5016223;28;45329;-73
2022/12/07 03:24:52;;;;;;;;;14.75;12.25;;;;;21.21;37.41;101993.91;5016096;28;45288;-73
2022/12/07 03:27:55;;;;;;;;;16.50;13.00;;;;;21.21;37.61;101988.63;5016278;28;45351;-73
2022/12/07 03:30:25;;;;;;;;;15.50;14.00;;;;;21.13;37.30;101972.66;5014206;28;45416;-73
2022/12/07 03:33:01;;;;;;;;;15.50;11.50;;;;;21.23;37.22;101988.50;5015662;28;45487;-73
2022/12/07 03:35:51;;;;;;;;;12.75;11.00;;;;;21.17;37.31;101981.97;5016153;28;45369;-73
2022/12/07 03:38:25;;;;;;;;;14.50;11.75;;;;;21.23;37.14;101988.50;5016217;28;45427;-73
2022/12/07 03:41:00;;;;;;;;;12.25;10.00;;;;;21.10;37.60;101968.50;5016041;28;45359;-73
2022/12/07 03:43:28;;;;;;;;;11.25;11.25;;;;;21.21;37.60;101983.31;5015886;28;47227;-73
2022/12/07 03:46:21;;;;;;;;;12.00;10.75;;;;;21.22;37.76;101985.00;5015533;28;45628;-73
2022/12/07 03:48:56;;;;;;;;;13.00;11.75;;;;;21.21;37.37;101988.63;5015926;28;45292;-73
2022/12/07 03:51:45;;;;;;;;;11.25;11.25;;;;;21.21;37.56;101988.63;5015965;28;45546;-72
2022/12/07 03:54:24;;;;;;;;;14.00;13.00;;;;;21.20;37.38;101992.25;5015536;28;46990;-73
2022/12/07 03:56:52;;;;;;;;;12.00;10.25;;;;;20.91;37.62;101937.63;5015762;28;45501;-72
2022/12/07 03:59:19;;;;;;;;;11.00;9.00;;;;;21.20;37.54;101984.31;5015730;28;45351;-72
2022/12/07 04:01:53;;;;;;;;;14.00;10.50;;;;;21.20;37.06;101988.78;5015587;28;45364;-73
2022/12/07 04:04:19;;;;;;;;;12.00;10.25;;;;;21.18;37.72;101979.16;5015423;28;46971;-73
2022/12/07 04:06:44;;;;;;;;;10.25;9.50;;;;;21.19;37.25;101980.00;5015635;28;45273;-72
2022/12/07 04:09:09;;;;;;;;;9.75;9.75;;;;;21.18;37.40;101979.16;5015692;28;45329;-72
2022/12/07 04:11:35;;;;;;;;;17.25;11.25;;;;;21.18;37.62;101981.00;5015890;28;45189;-73
2022/12/07 04:14:18;;;;;;;;;12.25;11.00;;;;;21.15;37.72;101968.03;5015405;28;46127;-72
2022/12/07 04:16:57;;;;;;;;;10.75;10.75;;;;;21.18;37.37;101973.06;5015628;28;45288;-72
2022/12/07 04:19:25;;;;;;;;;11.50;9.75;;;;;21.17;37.27;101961.63;4997944;28;45362;-73
2022/12/07 04:21:51;;;;;;;;;12.00;12.00;;;;;21.17;37.42;101961.63;5015517;28;45280;-73
2022/12/07 04:24:17;;;;;;;;;11.75;10.00;;;;;21.15;37.44;101962.75;5015274;28;47474;-72
2022/12/07 04:26:44;;;;;;;;;11.00;10.25;;;;;21.17;37.47;101958.13;5015600;28;45253;-73
2022/12/07 04:29:10;;;;;;;;;10.25;9.75;;;;;21.17;37.58;101950.19;5015168;28;45369;-72
2022/12/07 04:31:35;;;;;;;;;14.00;11.00;;;;;21.16;37.19;101957.31;5015331;28;45424;-73
2022/12/07 04:34:01;;;;;;;;;13.75;11.00;;;;;21.16;37.65;101959.94;5015210;28;45368;-72
2022/12/07 04:36:26;;;;;;;;;13.50;11.75;;;;;21.12;37.27;101950.66;5015465;28;45395;-73
2022/12/07 04:38:55;;;;;;;;;13.00;12.25;;;;;21.15;37.50;101960.94;5015393;28;45359;-72
2022/12/07 04:41:27;;;;;;;;;10.25;10.25;;;;;21.15;37.44;101962.75;5015503;28;45473;-73
2022/12/07 04:43:57;;;;;;;;;13.00;13.00;;;;;21.16;37.81;101972.34;5014777;28;46408;-73
2022/12/07 04:46:24;;;;;;;;;15.00;13.25;;;;;21.16;37.64;101969.69;5015062;28;45281;-73
2022/12/07 04:48:50;;;;;;;;;13.50;11.25;;;;;21.11;37.51;101962.19;4997468;28;45282;-73
2022/12/07 04:51:21;;;;;;;;;5.00;5.00;;;;;21.00;37.35;101934.09;5015227;28;45376;-73
2022/12/07 04:53:47;;;;;;;;;15.50;13.50;;;;;21.16;37.10;101967.88;5014886;28;45456;-72
2022/12/07 04:56:13;;;;;;;;;12.00;11.00;;;;;21.13;37.34;101956.78;5015032;28;45419;-72
2022/12/07 04:58:38;;;;;;;;;11.25;11.25;;;;;21.15;37.11;101963.59;5014725;28;45333;-73
2022/12/07 05:01:04;;;;;;;;;14.00;12.25;;;;;21.04;37.23;101947.91;5015557;28;45419;-72
2022/12/07 05:03:29;;;;;;;;;11.50;11.25;;;;;21.16;37.12;101964.41;5018376;28;46267;-73
2022/12/07 05:05:54;;;;;;;;;11.50;10.50;;;;;21.15;37.41;101966.25;5018525;28;45313;-73
2022/12/07 05:08:20;;;;;;;;;10.75;10.00;;;;;21.09;37.45;101958.88;5000687;28;45601;-73
2022/12/07 05:10:45;;;;;;;;;14.00;12.25;;;;;21.14;37.23;101961.91;5018414;28;45292;-73
2022/12/07 05:13:10;;;;;;;;;16.50;12.50;;;;;21.05;37.00;101941.63;5017986;28;46051;-73
2022/12/07 05:15:36;;;;;;;;;15.25;12.50;;;;;21.14;37.30;101955.78;5018233;28;45486;-73
2022/12/07 05:18:03;;;;;;;;;15.75;14.75;;;;;21.03;36.84;101941.75;5018360;28;45323;-73
2022/12/07 05:20:28;;;;;;;;;13.50;11.50;;;;;21.12;37.29;101947.16;5018470;28;45404;-73
2022/12/07 05:22:53;;;;;;;;;13.50;12.50;;;;;21.17;37.18;101963.44;5018034;28;45418;-72
2022/12/07 05:25:19;;;;;;;;;16.75;14.25;;;;;21.16;37.28;101965.25;5018099;28;45417;-73
2022/12/07 05:27:44;;;;;;;;;15.00;12.00;;;;;21.16;36.97;101961.75;5017951;28;45441;-73
2022/12/07 05:30:10;;;;;;;;;11.75;9.25;;;;;21.15;37.49;101966.25;5018210;28;45423;-73
2022/12/07 05:32:35;;;;;;;;;14.00;13.75;;;;;21.15;37.31;101960.09;5017969;28;47100;-72
2022/12/07 05:35:00;;;;;;;;;9.25;8.00;;;;;21.14;37.00;101961.91;5018004;28;45315;-72
2022/12/07 05:37:26;;;;;;;;;14.00;10.25;;;;;21.14;37.24;101966.38;5018205;28;45469;-74
2022/12/07 05:39:51;;;;;;;;;14.75;10.50;;;;;21.13;37.21;101967.38;5018285;28;45340;-73
2022/12/07 05:42:17;;;;;;;;;16.50;13.75;;;;;21.14;37.17;101966.38;5017564;28;47668;-73
2022/12/07 05:44:44;;;;;;;;;11.75;10.25;;;;;21.13;37.46;101970.00;5017940;28;45344;-73
2022/12/07 05:47:11;;;;;;;;;11.00;10.25;;;;;21.14;37.52;101969.00;5018353;28;45317;-72
2022/12/07 05:49:37;;;;;;;;;17.50;13.00;;;;;21.13;37.37;101978.75;5017889;28;45484;-73
2022/12/07 05:52:03;;;;;;;;;14.00;12.75;;;;;21.12;37.10;101976.28;5017731;28;46244;-73
2022/12/07 05:54:28;;;;;;;;;13.25;12.75;;;;;21.14;37.36;101974.31;5017753;28;45430;-74
2022/12/07 05:56:54;;;;;;;;;13.25;12.00;;;;;21.06;37.48;101961.81;5017415;28;46065;-74
2022/12/07 05:59:22;;;;;;;;;7.50;5.25;;;;;21.13;37.46;101967.38;5006662;28;45400;-73
2022/12/07 06:01:57;;;;;;;;;11.75;11.75;;;;;21.15;37.68;101975.97;5017189;28;47121;-74
2022/12/07 06:04:24;;;;;;;;;14.00;12.00;;;;;21.16;37.78;101970.53;5017441;28;45290;-75
2022/12/07 06:06:50;;;;;;;;;15.25;13.00;;;;;21.18;37.72;101978.34;5016615;28;45628;-76
2022/12/07 06:09:16;;;;;;;;;16.50;10.75;;;;;21.18;37.64;101975.69;5016514;28;45383;-76
2022/12/07 06:14:25;;;;;;;;;11.50;11.50;;;;;21.19;38.13;101966.75;4999907;28;45391;-74
2022/12/07 06:16:51;;;;;;;;;13.00;10.00;;;;;21.21;38.06;101971.94;5017062;28;45331;-73
2022/12/07 06:19:17;;;;;;;;;11.75;11.00;;;;;21.22;37.99;101971.75;5017143;28;45335;-73
2022/12/07 06:21:42;;;;;;;;;14.00;12.75;;;;;21.25;37.88;101973.28;5017121;28;46386;-73
2022/12/07 06:24:13;;;;;;;;;13.25;11.00;;;;;21.18;37.84;101952.69;5017282;28;45404;-73
2022/12/07 06:26:39;;;;;;;;;11.25;11.25;;;;;21.28;38.45;101973.00;5017163;28;45316;-73
2022/12/07 06:29:05;;;;;;;;;12.25;11.25;;;;;21.29;38.60;101972.84;5017303;28;45288;-73
2022/12/07 06:31:30;;;;;;;;;14.00;12.00;;;;;21.23;38.56;101941.69;5017020;28;46091;-73
2022/12/07 06:33:59;;;;;;;;;10.75;10.75;;;;;21.33;38.16;101964.59;5017124;28;45437;-73
2022/12/07 06:36:25;;;;;;;;;15.00;11.25;;;;;21.32;38.54;101961.13;5017294;28;45318;-73
2022/12/07 06:38:50;;;;;;;;;13.25;11.75;;;;;21.36;38.61;101967.81;5016952;28;45504;-73
2022/12/07 06:41:16;;;;;;;;;12.00;10.00;;;;;21.19;38.56;101940.28;5016775;28;45399;-73
2022/12/07 06:43:41;;;;;;;;;14.75;13.25;;;;;21.39;38.34;101961.38;5017001;28;45393;-73
2022/12/07 06:46:07;;;;;;;;;18.00;13.25;;;;;21.39;38.02;101967.47;5016843;28;45393;-73
2022/12/07 06:48:32;;;;;;;;;16.00;11.25;;;;;21.39;38.00;101958.72;5016927;28;45435;-73
2022/12/07 06:50:58;;;;;;;;;11.75;11.75;;;;;21.43;38.36;101970.69;5016829;28;46308;-73
2022/12/07 06:53:23;;;;;;;;;11.50;11.50;;;;;21.36;38.17;101962.50;5016710;28;45221;-73
2022/12/07 06:55:48;;;;;;;;;14.00;10.00;;;;;21.45;37.93;101974.00;5016426;28;45260;-73
2022/12/07 06:58:14;;;;;;;;;13.25;11.00;;;;;21.45;38.30;101976.66;5016687;28;45319;-73
2022/12/07 07:00:39;;;;;;;;;10.00;10.00;;;;;21.33;38.49;101954.03;5016481;28;46284;-73
2022/12/07 07:03:04;;;;;;;;;12.25;11.00;;;;;21.46;37.95;101969.53;5016627;28;45397;-73
2022/12/07 07:05:30;;;;;;;;;11.00;11.00;;;;;21.37;38.17;101958.03;5016683;28;45339;-73
2022/12/07 07:07:55;;;;;;;;;15.75;12.50;;;;;21.47;38.32;101977.34;5016647;28;45288;-73
2022/12/07 07:10:20;;;;;;;;;9.00;9.00;;;;;21.39;38.23;101962.19;5016009;28;45973;-73
2022/12/07 07:12:46;;;;;;;;;10.75;10.50;;;;;21.46;37.91;101978.34;5016520;28;45373;-73
2022/12/07 07:15:11;;;;;;;;;12.25;12.25;;;;;21.46;37.83;101978.34;5016574;28;45305;-73
2022/12/07 07:17:37;;;;;;;;;13.00;11.00;;;;;21.48;38.29;101986.13;5016560;28;45308;-73
2022/12/07 07:20:03;;;;;;;;;12.25;10.50;;;;;21.48;37.89;101976.34;4998476;28;47345;-73
2022/12/07 07:22:28;;;;;;;;;9.50;9.25;;;;;21.48;38.15;101976.34;5016324;28;45414;-73
2022/12/07 07:24:53;;;;;;;;;13.00;9.75;;;;;21.44;38.40;101966.22;5015755;28;45366;-73
2022/12/07 07:27:19;;;;;;;;;14.75;12.50;;;;;21.44;38.19;101972.34;5016712;28;45448;-73
2022/12/07 07:29:44;;;;;;;;;12.75;11.25;;;;;21.48;37.98;101975.53;5016166;28;45973;-73
2022/12/07 07:32:09;;;;;;;;;9.25;6.00;;;;;21.47;38.16;101979.97;5016259;28;45438;-74
2022/12/07 07:34:35;;;;;;;;;10.75;9.00;;;;;21.47;37.90;101987.09;5016263;28;45401;-74
2022/12/07 07:37:00;;;;;;;;;14.00;13.00;;;;;21.47;38.09;101977.34;5016366;28;45392;-73
2022/12/07 07:39:25;;;;;;;;;13.00;9.25;;;;;21.47;38.06;101987.91;5015591;28;46315;-73
2022/12/07 07:41:51;;;;;;;;;12.00;11.75;;;;;21.47;38.13;101976.50;5016090;28;45484;-73
2022/12/07 07:44:16;;;;;;;;;14.50;11.75;;;;;21.46;37.85;101983.63;5016214;28;45456;-73
2022/12/07 07:46:41;;;;;;;;;11.50;9.75;;;;;21.44;38.26;101974.16;5016089;28;45468;-73
2022/12/07 07:49:08;;;;;;;;;10.00;10.00;;;;;21.44;37.93;101984.75;5015992;28;46288;-73
2022/12/07 07:51:33;;;;;;;;;12.50;11.25;;;;;21.13;38.03;101938.25;5015950;28;45382;-73
2022/12/07 07:53:58;;;;;;;;;10.25;9.75;;;;;21.34;38.15;101975.03;5015474;28;45514;-73
2022/12/07 07:56:24;;;;;;;;;11.00;9.50;;;;;21.44;38.10;101993.53;5016074;28;45485;-74
2022/12/07 07:58:52;;;;;;;;;11.75;9.00;;;;;21.45;38.03;102000.47;5015654;28;46093;-73
2022/12/07 08:01:19;;;;;;;;;14.75;13.75;;;;;21.45;37.99;102003.13;5015669;28;45312;-73
2022/12/07 08:03:45;;;;;;;;;9.50;9.50;;;;;21.42;37.79;101992.03;5015780;28;45450;-74
2022/12/07 08:06:11;;;;;;;;;10.50;9.50;;;;;21.45;37.68;101995.19;5015333;28;45441;-73
2022/12/07 08:08:36;;;;;;;;;15.50;13.25;;;;;21.45;37.68;101989.88;5012044;28;46269;-73
2022/12/07 08:11:05;;;;;;;;;11.00;11.00;;;;;21.45;37.59;101997.00;5014769;28;45288;-73
2022/12/07 08:13:30;;;;;;;;;12.25;12.25;;;;;21.46;38.00;101990.72;5015370;28;45527;-74
2022/12/07 08:15:56;;;;;;;;;17.25;11.50;;;;;21.45;37.56;101987.25;5007305;28;45606;-75
2022/12/07 08:18:21;;;;;;;;;9.00;8.75;;;;;21.45;37.45;101989.88;5014957;28;46211;-74
2022/12/07 08:20:46;;;;;;;;;14.50;13.00;;;;;21.37;37.40;101979.19;5003676;28;45422;-73
2022/12/07 08:23:12;;;;;;;;;12.00;10.25;;;;;21.46;37.92;101988.91;5015280;28;45492;-73
2022/12/07 08:25:38;;;;;;;;;16.00;13.50;;;;;21.45;37.70;101997.84;5014982;28;45359;-73
2022/12/07 08:28:03;;;;;;;;;9.50;9.50;;;;;21.43;37.88;101997.16;5015013;28;46117;-74
2022/12/07 08:30:30;;;;;;;;;13.00;11.50;;;;;21.35;37.61;101989.13;5015016;28;45404;-74
2022/12/07 08:32:55;;;;;;;;;15.50;13.75;;;;;21.37;37.86;101995.94;5015223;28;45495;-74
2022/12/07 08:35:21;;;;;;;;;14.25;10.25;;;;;21.42;37.93;102003.41;5014842;28;45438;-74
2022/12/07 08:37:47;;;;;;;;;13.25;13.00;;;;;21.44;37.89;102001.47;5018254;28;47249;-74
2022/12/07 08:40:15;;;;;;;;;12.50;10.25;;;;;21.45;38.03;102007.59;5018672;28;45435;-74
2022/12/07 08:42:44;;;;;;;;;15.50;10.50;;;;;21.44;37.49;102003.28;5018764;28;45308;-74
2022/12/07 08:45:12;;;;;;;;;13.00;11.00;;;;;21.44;37.84;102011.22;5018695;28;45367;-74
2022/12/07 08:47:43;;;;;;;;;12.00;10.75;;;;;21.44;38.11;102011.22;5018236;28;46113;-74
2022/12/07 08:50:10;;;;;;;;;11.00;9.00;;;;;;;;5018083;28;45502;-74
2022/12/07 08:52:35;;;;;;;;;15.00;13.50;;;;;;;;5018626;28;45386;-74
2022/12/07 08:55:02;;;;;;;;;14.00;11.75;;;;;21.29;37.78;101994.00;5018253;28;45423;-75
2022/12/07 08:57:28;;;;;;;;;13.00;10.00;;;;;21.42;37.50;102006.06;5018174;28;47363;-72
2022/12/07 08:59:53;;;;;;;;;17.50;13.75;;;;;21.42;37.71;102011.38;5018163;28;45423;-72
2022/12/07 09:02:19;;;;;;;;;15.25;11.50;;;;;21.36;37.74;102006.66;5018121;28;45332;-72
2022/12/07 09:04:44;;;;;;;;;13.50;12.75;;;;;21.37;37.46;102003.03;5017994;28;45303;-72
2022/12/07 09:07:10;;;;;;;;;14.00;10.75;;;;;21.38;37.99;102002.91;5018128;28;45993;-72
2022/12/07 09:09:35;;;;;;;;;13.00;13.00;;;;;21.39;37.46;102006.38;5018146;28;45650;-72
2022/12/07 09:12:01;;;;;;;;;14.75;12.25;;;;;21.38;37.60;102002.06;5018144;28;45653;-72
2022/12/07 09:14:26;;;;;;;;;11.00;9.50;;;;;21.32;37.91;102000.00;5017917;28;45383;-72
2022/12/07 09:16:51;;;;;;;;;15.00;12.50;;;;;21.38;38.01;102010.00;5018126;28;46135;-72
2022/12/07 09:19:17;;;;;;;;;15.75;13.25;;;;;21.38;38.07;102013.50;5017695;28;45334;-72
2022/12/07 09:21:42;;;;;;;;;12.25;12.00;;;;;21.38;37.54;102015.28;5018269;28;45351;-72
2022/12/07 09:24:09;;;;;;;;;14.75;14.00;;;;;21.27;37.89;101989.84;5018040;28;45377;-72
2022/12/07 09:26:35;;;;;;;;;14.25;12.25;;;;;21.33;37.72;101999.03;5017921;28;46226;-72
2022/12/07 09:29:01;;;;;;;;;12.75;11.25;;;;;21.36;37.78;102004.03;5017868;28;45372;-72
2022/12/07 09:31:26;;;;;;;;;11.75;10.50;;;;;21.37;38.06;102000.38;5018014;28;45365;-72
2022/12/07 09:33:57;;;;;;;;;13.25;12.00;;;;;21.25;37.56;101991.81;4999758;28;45329;-72
2022/12/07 09:36:23;;;;;;;;;13.75;12.75;;;;;21.35;37.90;102003.19;5017861;28;47261;-72
2022/12/07 09:38:48;;;;;;;;;13.50;12.25;;;;;21.35;37.93;102008.47;5017623;28;45469;-72
2022/12/07 09:41:15;;;;;;;;;13.00;10.75;;;;;21.33;38.06;102004.31;5017706;28;45572;-72
2022/12/07 09:43:41;;;;;;;;;13.25;11.50;;;;;21.35;38.10;102005.00;5017852;28;45470;-72
2022/12/07 09:46:12;;;;;;;;;17.00;11.50;;;;;21.35;37.98;102005.00;5017130;28;46971;-72
2022/12/07 09:48:42;;;;;;;;;15.50;12.25;;;;;21.31;37.96;102008.94;5010126;28;46533;-72
2022/12/07 09:51:17;;;;;;;;;13.25;11.75;;;;;21.35;37.95;102013.78;4984463;28;45309;-72
2022/12/07 09:53:44;;;;;;;;;13.25;12.75;;;;;21.28;38.16;102002.94;5001911;28;45427;-71
2022/12/07 09:56:18;;;;;;;;;12.25;12.00;;;;;21.31;37.88;102001.00;5017426;28;46289;-71
2022/12/07 09:58:45;;;;;;;;;12.75;11.00;;;;;21.35;37.67;102005.84;5016873;28;45293;-72
2022/12/07 10:01:16;;;;;;;;;16.75;12.75;;;;;21.34;37.78;101993.56;5016735;28;45506;-72
2022/12/07 10:03:50;;;;;;;;;14.00;14.00;;;;;21.35;37.70;101994.41;4999271;28;45301;-72
2022/12/07 10:06:16;;;;;;;;;13.50;12.75;;;;;21.34;37.72;101990.13;5017138;28;46652;-72
2022/12/07 10:08:43;;;;;;;;;15.25;13.25;;;;;21.35;37.52;101989.94;5016900;28;45328;-73
2022/12/07 10:11:10;;;;;;;;;16.75;13.00;;;;;21.35;38.17;101983.81;5017164;28;45384;-72
2022/12/07 10:13:46;;;;;;;;;15.50;13.00;;;;;21.35;37.84;101987.31;5017113;28;45300;-72
2022/12/07 10:16:24;;;;;;;;;14.50;12.00;;;;;21.36;37.43;101990.78;5016802;28;45387;-72
2022/12/07 10:18:50;;;;;;;;;13.00;12.00;;;;;21.36;37.67;101978.38;5016656;28;45419;-72
2022/12/07 10:21:26;;;;;;;;;14.00;13.00;;;;;21.26;38.12;101970.47;5017513;28;45440;-72
2022/12/07 10:24:04;;;;;;;;;12.00;10.25;;;;;21.35;38.03;101982.00;5016934;28;45440;-72
2022/12/07 10:26:38;;;;;;;;;16.25;12.00;;;;;21.36;37.86;101977.56;5016842;28;46153;-72
2022/12/07 10:29:17;;;;;;;;;13.50;13.00;;;;;21.37;38.01;101984.50;5016973;28;45460;-71
2022/12/07 10:31:44;;;;;;;;;19.25;16.00;;;;;21.36;37.77;101969.63;5016772;28;45423;-72
2022/12/07 10:34:31;;;;;;;;;14.00;13.25;;;;;21.37;37.81;101969.44;5016915;28;45301;-72
2022/12/07 10:37:09;;;;;;;;;9.25;7.00;;;;;21.36;37.98;101962.50;5016504;28;46255;-72
2022/12/07 10:40:00;;;;;;;;;14.25;12.25;;;;;21.38;37.80;101960.53;5016724;28;45333;-72
2022/12/07 10:42:28;;;;;;;;;12.25;12.25;;;;;21.33;37.75;101957.50;5013624;28;45402;-72
2022/12/07 10:45:12;;;;;;;;;13.50;12.75;;;;;21.38;37.67;101963.19;5016690;28;45474;-72
2022/12/07 10:48:02;;;;;;;;;16.00;13.25;;;;;21.38;37.95;101947.31;5016113;28;46186;-72
2022/12/07 10:51:04;;;;;;;;;17.25;16.25;;;;;21.39;37.77;101948.16;5016696;28;45306;-72
2022/12/07 10:54:01;;;;;;;;;10.75;8.75;;;;;21.38;37.80;101944.66;5016434;28;45395;-72
2022/12/07 10:56:56;;;;;;;;;17.00;13.75;;;;;21.38;38.22;101942.00;5008126;28;45396;-72
2022/12/07 10:59:33;;;;;;;;;18.00;16.00;;;;;21.37;38.28;101939.50;4993870;28;45914;-72
2022/12/07 11:02:31;;;;;;;;;14.75;13.25;;;;;21.37;38.14;101934.19;4998216;28;45437;-72
2022/12/07 11:05:06;;;;;;;;;15.50;11.50;;;;;21.36;38.16;101933.38;5016292;28;45408;-72
2022/12/07 11:07:56;;;;;;;;;15.00;14.25;;;;;21.35;37.97;101925.56;5016118;28;45304;-72
2022/12/07 11:10:24;;;;;;;;;16.75;15.00;;;;;21.35;37.86;101926.41;5016327;28;46245;-72
2022/12/07 11:13:05;;;;;;;;;16.25;13.50;;;;;21.35;38.23;101923.78;5016141;28;45471;-72
2022/12/07 11:15:49;;;;;;;;;13.25;13.25;;;;;21.32;38.17;101920.56;5015762;28;45306;-72
2022/12/07 11:18:39;;;;;;;;;15.50;14.25;;;;;21.24;37.85;101905.44;5015948;28;45330;-75
2022/12/07 11:21:13;;;;;;;;;16.25;14.50;;;;;21.34;38.06;101922.09;5016167;28;46163;-72
2022/12/07 11:23:57;;;;;;;;;15.75;11.50;;;;;21.34;38.06;101914.16;5016271;28;45389;-72
2022/12/07 11:26:23;;;;;;;;;15.25;14.25;;;;;21.34;38.32;101916.00;5016247;28;45550;-72